createdAt,value
2023-02-22T00:02:29.189Z,102.80
2023-02-22T00:04:57.938Z,96.00
2023-02-22T00:07:26.517Z,96.80
2023-02-22T00:09:57.037Z,92.70
2023-02-22T00:12:29.214Z,92.50
2023-02-22T00:14:57.413Z,98.20
2023-02-22T00:17:26.559Z,107.50
2023-02-22T00:19:54.814Z,96.50
2023-02-22T00:22:23.566Z,103.60
2023-02-22T00:24:53.727Z,98.70
2023-02-22T00:27:27.576Z,96.60
2023-02-22T00:32:27.897Z,95.40
2023-02-22T00:34:57.089Z,108.50
2023-02-22T00:37:26.729Z,113.40
2023-02-22T00:39:55.096Z,116.50
2023-02-22T00:42:23.096Z,128.30
2023-02-22T00:44:52.674Z,128.10
2023-02-22T00:47:20.662Z,129.90
2023-02-22T00:49:49.180Z,126.10
2023-02-22T00:52:17.325Z,125.60
2023-02-22T00:54:45.326Z,126.90
2023-02-22T00:57:13.385Z,131.90
2023-02-22T00:59:41.408Z,127.50
2023-02-22T01:02:09.630Z,127.50
2023-02-22T01:04:37.775Z,127.10
2023-02-22T01:07:06.338Z,132.10
2023-02-22T01:09:35.104Z,129.20
2023-02-22T01:12:03.228Z,128.80
2023-02-22T01:14:31.202Z,122.90
2023-02-22T01:16:59.149Z,98.70
2023-02-22T01:19:27.117Z,81.60
2023-02-22T01:21:55.103Z,80.30
2023-02-22T01:24:23.059Z,67.30
2023-02-22T01:26:52.791Z,77.30
2023-02-22T01:29:21.304Z,78.70
2023-02-22T01:31:54.885Z,63.80
2023-02-22T01:34:24.290Z,54.40
2023-02-22T01:36:52.239Z,55.70
2023-02-22T01:39:20.290Z,46.40
2023-02-22T01:41:48.238Z,47.20
2023-02-22T01:44:35.287Z,37.40
2023-02-22T01:47:05.526Z,33.60
2023-02-22T01:49:40.369Z,40.10
2023-02-22T01:52:11.934Z,45.20
2023-02-22T01:54:50.552Z,43.20
2023-02-22T01:57:24.197Z,44.30
2023-02-22T01:59:58.259Z,49.00
2023-02-22T02:02:27.340Z,48.30
2023-02-22T02:04:57.655Z,49.90
2023-02-22T02:07:29.645Z,46.30
2023-02-22T02:09:59.216Z,41.70
2023-02-22T02:12:33.366Z,42.70
2023-02-22T02:15:20.148Z,44.40
2023-02-22T02:17:51.308Z,47.30
2023-02-22T02:23:38.161Z,50.80
2023-02-22T02:26:38.173Z,46.00
2023-02-22T02:29:43.886Z,45.20
2023-02-22T02:32:23.161Z,41.40
2023-02-22T02:34:51.224Z,47.50
2023-02-22T02:37:35.611Z,53.20
2023-02-22T02:40:25.637Z,40.60
2023-02-22T02:42:59.390Z,34.70
2023-02-22T02:46:16.800Z,30.00
2023-02-22T02:48:56.980Z,27.10
2023-02-22T02:51:29.381Z,30.00
2023-02-22T02:53:58.122Z,30.60
2023-02-22T02:56:26.137Z,30.00
2023-02-22T02:58:54.788Z,32.80
2023-02-22T03:01:36.170Z,28.00
2023-02-22T03:04:49.010Z,29.90
2023-02-22T03:07:30.253Z,30.90
2023-02-22T03:13:15.825Z,38.70
2023-02-22T03:15:57.782Z,35.70
2023-02-22T03:18:34.305Z,32.80
2023-02-22T03:21:22.037Z,33.20
2023-02-22T03:24:14.832Z,37.90
2023-02-22T03:26:47.715Z,39.70
2023-02-22T03:29:18.774Z,35.60
2023-02-22T03:31:52.299Z,35.50
2023-02-22T03:34:27.599Z,36.30
2023-02-22T03:37:04.079Z,39.00
2023-02-22T03:39:37.738Z,57.40
2023-02-22T03:44:41.503Z,112.50
2023-02-22T03:47:17.624Z,97.50
2023-02-22T03:49:56.113Z,81.10
2023-02-22T03:52:24.349Z,58.30
2023-02-22T03:54:53.786Z,52.30
2023-02-22T03:57:29.166Z,41.60
2023-02-22T04:00:07.899Z,36.30
2023-02-22T04:02:45.088Z,41.40
2023-02-22T04:07:43.797Z,38.10
2023-02-22T04:10:15.428Z,38.60
2023-02-22T04:12:44.729Z,38.10
2023-02-22T04:15:15.673Z,46.80
2023-02-22T04:20:19.779Z,57.70
2023-02-22T04:23:00.641Z,81.30
2023-02-22T04:25:29.566Z,107.60
2023-02-22T04:27:58.309Z,129.50
2023-02-22T04:30:38.743Z,161.20
2023-02-22T04:33:10.856Z,192.40
2023-02-22T04:35:38.868Z,211.50
2023-02-22T04:38:09.346Z,155.70
2023-02-22T04:43:07.848Z,63.20
2023-02-22T04:45:36.134Z,65.70
2023-02-22T04:48:05.356Z,65.80
2023-02-22T04:50:33.320Z,77.60
2023-02-22T04:53:01.299Z,79.00
2023-02-22T04:55:29.649Z,61.00
2023-02-22T04:57:57.941Z,56.00
2023-02-22T05:00:26.246Z,62.00
2023-02-22T05:02:59.139Z,61.60
2023-02-22T05:05:27.165Z,78.80
2023-02-22T05:07:54.952Z,84.50
2023-02-22T05:10:22.875Z,76.30
2023-02-22T05:12:51.800Z,60.20
2023-02-22T05:15:21.736Z,53.60
2023-02-22T05:17:49.578Z,53.00
2023-02-22T05:20:27.936Z,54.00
2023-02-22T05:22:57.212Z,52.50
2023-02-22T05:25:26.318Z,55.00
2023-02-22T05:27:57.446Z,66.80
2023-02-22T05:32:54.862Z,75.50
2023-02-22T05:35:23.689Z,71.70
2023-02-22T05:37:52.563Z,55.90
2023-02-22T05:40:25.309Z,56.90
2023-02-22T05:42:53.976Z,57.10
2023-02-22T05:45:24.232Z,69.10
2023-02-22T05:47:52.757Z,64.50
2023-02-22T05:50:21.735Z,58.60
2023-02-22T05:52:49.639Z,57.90
2023-02-22T05:55:20.876Z,56.00
2023-02-22T05:57:48.876Z,44.50
2023-02-22T06:00:18.676Z,55.90
2023-02-22T06:02:46.676Z,48.80
2023-02-22T06:05:17.985Z,45.00
2023-02-22T06:07:45.958Z,49.50
2023-02-22T06:10:14.013Z,45.20
2023-02-22T06:12:41.934Z,46.60
2023-02-22T06:15:10.710Z,47.80
2023-02-22T06:17:39.623Z,50.60
2023-02-22T06:20:10.182Z,59.10
2023-02-22T06:22:41.226Z,57.30
2023-02-22T06:25:13.068Z,67.40
2023-02-22T06:27:41.057Z,68.80
2023-02-22T06:30:13.326Z,71.40
2023-02-22T06:32:41.544Z,67.40
2023-02-22T06:35:10.129Z,65.00
2023-02-22T06:37:39.966Z,61.70
2023-02-22T06:40:08.696Z,60.10
2023-02-22T06:42:37.251Z,67.10
2023-02-22T06:45:05.962Z,55.80
2023-02-22T06:47:37.498Z,15.00
2023-02-22T06:50:05.814Z,21.60
2023-02-22T06:52:33.866Z,11.90
2023-02-22T06:55:01.910Z,12.20
2023-02-22T06:57:29.807Z,19.80
2023-02-22T06:59:57.720Z,12.40
2023-02-22T07:02:25.548Z,16.00
2023-02-22T07:04:53.440Z,12.30
2023-02-22T07:07:23.766Z,16.90
2023-02-22T07:09:51.930Z,13.30
2023-02-22T07:12:19.921Z,13.20
2023-02-22T07:14:47.841Z,10.80
2023-02-22T07:17:15.889Z,9.10
2023-02-22T07:19:43.768Z,15.80
2023-02-22T07:22:11.755Z,8.10
2023-02-22T07:24:41.299Z,7.30
2023-02-22T07:27:09.272Z,16.30
2023-02-22T07:29:37.153Z,11.40
2023-02-22T07:32:06.304Z,11.80
2023-02-22T07:34:34.225Z,10.40
2023-02-22T07:37:02.183Z,18.70
2023-02-22T07:39:30.131Z,13.90
2023-02-22T07:41:59.358Z,17.40
2023-02-22T07:44:31.034Z,9.60
2023-02-22T07:46:59.058Z,14.90
2023-02-22T07:49:27.017Z,11.40
2023-02-22T07:51:55.090Z,8.40
2023-02-22T07:54:23.513Z,8.60
2023-02-22T07:56:51.398Z,10.80
2023-02-22T07:59:19.753Z,13.10
2023-02-22T08:01:50.516Z,12.70
2023-02-22T08:04:18.742Z,13.60
2023-02-22T08:06:50.394Z,16.00
2023-02-22T08:09:18.306Z,14.50
2023-02-22T08:11:46.123Z,18.10
2023-02-22T08:14:16.613Z,12.30
2023-02-22T08:16:44.668Z,16.10
2023-02-22T08:19:12.583Z,10.80
2023-02-22T08:21:40.431Z,13.30
2023-02-22T08:24:08.397Z,9.90
2023-02-22T08:26:36.376Z,8.60
2023-02-22T08:29:04.289Z,12.30
2023-02-22T08:31:32.223Z,11.80
2023-02-22T08:34:01.319Z,12.00
2023-02-22T08:36:29.644Z,14.90
2023-02-22T08:38:57.571Z,11.40
2023-02-22T08:41:25.615Z,11.50
2023-02-22T08:43:53.671Z,13.10
2023-02-22T08:46:21.530Z,14.70
2023-02-22T08:48:51.133Z,10.70
2023-02-22T08:51:19.573Z,15.90
2023-02-22T08:53:47.514Z,9.30
2023-02-22T08:56:15.446Z,12.20
2023-02-22T08:58:43.445Z,12.40
2023-02-22T09:01:12.115Z,13.10
2023-02-22T09:03:41.002Z,14.20
2023-02-22T09:06:09.046Z,12.60
2023-02-22T09:08:37.281Z,9.20
2023-02-22T09:11:05.124Z,12.00
2023-02-22T09:13:32.958Z,12.70
2023-02-22T09:16:00.964Z,11.60
2023-02-22T09:18:39.146Z,16.40
2023-02-22T09:21:12.544Z,13.80
2023-02-22T09:23:41.710Z,10.90
2023-02-22T09:26:10.469Z,11.60
2023-02-22T09:28:38.606Z,11.70
2023-02-22T09:31:06.430Z,7.50
2023-02-22T09:33:34.320Z,12.60
2023-02-22T09:36:02.828Z,10.50
2023-02-22T09:38:32.715Z,12.60
2023-02-22T09:41:25.444Z,9.50
2023-02-22T09:44:02.308Z,16.40
2023-02-22T09:46:38.575Z,12.10
2023-02-22T09:49:25.069Z,11.60
2023-02-22T09:52:05.289Z,11.10
2023-02-22T09:54:39.790Z,11.30
2023-02-22T09:57:16.271Z,12.20
2023-02-22T10:00:13.789Z,11.90
2023-02-22T10:02:54.602Z,8.10
2023-02-22T10:05:39.864Z,10.60
2023-02-22T10:08:19.079Z,13.50
2023-02-22T10:10:55.201Z,8.90
2023-02-22T10:13:43.566Z,12.60
2023-02-22T10:16:25.522Z,12.50
2023-02-22T10:19:14.622Z,10.40
2023-02-22T10:22:07.804Z,14.00
2023-02-22T10:24:57.365Z,14.10
2023-02-22T10:27:34.264Z,11.90
2023-02-22T10:30:25.361Z,13.30
2023-02-22T10:33:20.993Z,10.90
2023-02-22T10:35:52.478Z,18.20
2023-02-22T10:38:23.773Z,9.20
2023-02-22T10:41:10.161Z,10.80
2023-02-22T10:43:41.075Z,11.00
2023-02-22T10:48:43.680Z,16.30
2023-02-22T10:51:12.189Z,8.00
2023-02-22T10:53:41.006Z,12.50
2023-02-22T10:56:18.685Z,9.80
2023-02-22T10:59:02.788Z,9.10
2023-02-22T11:01:31.125Z,11.40
2023-02-22T11:04:22.952Z,11.50
2023-02-22T11:07:27.602Z,8.60
2023-02-22T11:10:09.765Z,10.00
2023-02-22T11:12:39.691Z,9.40
2023-02-22T11:15:16.985Z,10.30
2023-02-22T11:17:48.097Z,10.60
2023-02-22T11:22:58.187Z,14.80
2023-02-22T11:25:32.569Z,9.20
2023-02-22T11:28:20.766Z,12.10
2023-02-22T11:30:52.355Z,13.20
2023-02-22T11:33:24.944Z,12.30
2023-02-22T11:35:54.272Z,13.60
2023-02-22T11:38:25.232Z,10.40
2023-02-22T11:43:54.493Z,9.20
2023-02-22T11:49:01.250Z,8.90
2023-02-22T11:51:35.571Z,10.60
2023-02-22T11:54:25.663Z,12.70
2023-02-22T11:57:08.476Z,11.10
2023-02-22T11:59:55.965Z,9.50
2023-02-22T12:02:56.918Z,9.80
2023-02-22T12:05:31.087Z,7.60
2023-02-22T12:08:30.112Z,11.90
2023-02-22T12:11:12.582Z,9.80
2023-02-22T12:13:45.573Z,11.40
2023-02-22T12:16:32.033Z,11.00
2023-02-22T12:19:02.853Z,12.30
2023-02-22T12:21:34.541Z,12.30
2023-02-22T12:24:14.457Z,10.20
2023-02-22T12:26:47.243Z,10.10
2023-02-22T12:29:37.727Z,11.90
2023-02-22T12:32:32.894Z,13.90
2023-02-22T12:35:12.992Z,12.40
2023-02-22T12:38:01.875Z,10.90
2023-02-22T12:40:29.819Z,11.80
2023-02-22T12:43:18.090Z,12.50
2023-02-22T12:45:55.298Z,12.00
2023-02-22T12:49:17.825Z,9.60
2023-02-22T12:51:57.598Z,14.40
2023-02-22T12:54:25.846Z,14.00
2023-02-22T12:57:03.439Z,13.40
2023-02-22T12:59:38.111Z,10.60
2023-02-22T13:02:30.898Z,8.30
2023-02-22T13:05:01.371Z,10.50
2023-02-22T13:07:51.292Z,7.30
2023-02-22T13:10:28.370Z,11.30
2023-02-22T13:13:21.622Z,10.90
2023-02-22T13:15:52.131Z,9.30
2023-02-22T13:18:35.384Z,8.40
2023-02-22T13:21:27.992Z,9.50
2023-02-22T13:24:45.245Z,11.50
2023-02-22T13:27:21.561Z,11.50
2023-02-22T13:29:58.090Z,12.60
2023-02-22T13:32:51.584Z,13.70
2023-02-22T13:35:41.319Z,14.40
2023-02-22T13:38:47.410Z,10.90
2023-02-22T13:41:24.141Z,15.10
2023-02-22T13:44:16.858Z,12.80
2023-02-22T13:47:04.108Z,13.00
2023-02-22T13:49:52.661Z,10.30
2023-02-22T13:52:26.643Z,9.90
2023-02-22T13:55:00.387Z,8.10
2023-02-22T13:57:37.079Z,12.00
2023-02-22T14:00:21.256Z,9.20
2023-02-22T14:03:09.108Z,11.50
2023-02-22T14:05:37.582Z,11.90
2023-02-22T14:08:07.197Z,10.40
2023-02-22T14:10:59.593Z,14.20
2023-02-22T14:13:57.257Z,16.00
2023-02-22T14:16:28.917Z,15.60
2023-02-22T14:19:20.473Z,14.70
2023-02-22T14:22:03.038Z,10.60
2023-02-22T14:24:44.403Z,9.00
2023-02-22T14:27:13.908Z,11.70
2023-02-22T14:29:54.429Z,13.60
2023-02-22T14:32:31.996Z,15.90
2023-02-22T14:35:27.439Z,12.20
2023-02-22T14:38:02.077Z,15.30
2023-02-22T14:40:32.556Z,12.90
2023-02-22T14:43:12.871Z,10.30
2023-02-22T14:45:53.983Z,10.80
2023-02-22T14:48:39.577Z,20.60
2023-02-22T14:51:22.207Z,10.80
2023-02-22T14:54:21.110Z,9.00
2023-02-22T14:57:12.185Z,11.80
2023-02-22T15:00:22.753Z,17.00
2023-02-22T15:02:57.353Z,12.20
2023-02-22T15:05:38.503Z,13.60
2023-02-22T15:10:46.048Z,9.30
2023-02-22T15:13:15.838Z,12.30
2023-02-22T15:15:49.746Z,17.50
2023-02-22T15:18:22.116Z,14.40
2023-02-22T15:20:57.730Z,13.50
2023-02-22T15:23:30.446Z,12.90
2023-02-22T15:25:58.577Z,14.00
2023-02-22T15:28:32.921Z,13.30
2023-02-22T15:31:17.466Z,14.30
2023-02-22T15:33:46.296Z,15.00
2023-02-22T15:36:17.864Z,13.50
2023-02-22T15:38:50.564Z,13.10
2023-02-22T15:41:28.317Z,12.20
2023-02-22T15:44:07.882Z,17.90
2023-02-22T15:46:45.589Z,10.50
2023-02-22T15:49:13.412Z,13.10
2023-02-22T15:51:46.508Z,14.60
2023-02-22T15:54:27.009Z,17.80
2023-02-22T15:56:56.544Z,14.60
2023-02-22T15:59:30.525Z,13.20
2023-02-22T16:01:59.918Z,18.60
2023-02-22T16:04:31.219Z,19.20
2023-02-22T16:07:17.225Z,18.30
2023-02-22T16:09:50.112Z,19.60
2023-02-22T16:12:21.005Z,22.00
2023-02-22T16:17:35.346Z,25.00
2023-02-22T16:20:12.281Z,24.20
2023-02-22T16:22:46.800Z,24.00
2023-02-22T16:25:37.323Z,23.00
2023-02-22T16:28:33.953Z,30.40
2023-02-22T16:31:03.410Z,23.60
2023-02-22T16:33:34.147Z,26.50
2023-02-22T16:38:38.556Z,32.10
2023-02-22T16:41:07.658Z,29.40
2023-02-22T16:43:36.323Z,32.60
2023-02-22T16:46:07.060Z,39.60
2023-02-22T16:48:38.489Z,28.80
2023-02-22T16:51:22.015Z,25.80
2023-02-22T16:53:53.080Z,30.00
2023-02-22T16:58:52.796Z,23.50
2023-02-22T17:01:23.385Z,28.80
2023-02-22T17:03:53.903Z,23.50
2023-02-22T17:06:22.617Z,23.00
2023-02-22T17:08:52.389Z,26.40
2023-02-22T17:11:21.118Z,20.90
2023-02-22T17:13:51.900Z,25.80
2023-02-22T17:16:20.244Z,29.60
2023-02-22T17:18:49.916Z,43.30
2023-02-22T17:21:17.998Z,62.50
2023-02-22T17:23:47.105Z,75.20
2023-02-22T17:26:17.277Z,66.50
2023-02-22T17:28:46.198Z,58.60
2023-02-22T17:31:23.932Z,52.20
2023-02-22T17:33:52.522Z,40.10
2023-02-22T17:36:21.131Z,41.40
2023-02-22T17:38:50.068Z,38.60
2023-02-22T17:41:18.385Z,35.30
2023-02-22T17:43:46.525Z,34.50
2023-02-22T17:46:14.809Z,39.00
2023-02-22T17:48:43.095Z,35.00
2023-02-22T17:51:12.537Z,35.00
2023-02-22T17:53:40.900Z,63.10
2023-02-22T17:56:13.582Z,55.10
2023-02-22T17:58:41.563Z,64.10
2023-02-22T18:01:29.495Z,155.20
2023-02-22T18:04:03.005Z,97.70
2023-02-22T18:06:32.816Z,115.80
2023-02-22T18:09:01.125Z,116.60
2023-02-22T18:11:32.759Z,119.00
2023-02-22T18:14:00.981Z,110.30
2023-02-22T18:16:32.037Z,109.90
2023-02-22T18:19:01.679Z,119.70
2023-02-22T18:21:29.645Z,109.30
2023-02-22T18:23:58.137Z,113.30
2023-02-22T18:26:26.741Z,128.30
2023-02-22T18:28:55.177Z,127.70
2023-02-22T18:31:23.897Z,118.80
2023-02-22T18:33:53.396Z,113.80
2023-02-22T18:36:23.438Z,111.50
2023-02-22T18:38:53.747Z,95.70
2023-02-22T18:41:26.555Z,90.90
2023-02-22T18:44:00.661Z,109.50
2023-02-22T18:46:30.385Z,198.20
2023-02-22T18:49:02.102Z,194.30
2023-02-22T18:51:30.808Z,162.20
2023-02-22T18:54:02.533Z,149.80
2023-02-22T18:56:41.180Z,145.10
2023-02-22T18:59:12.376Z,145.50
2023-02-22T19:01:49.075Z,151.90
2023-02-22T19:04:19.253Z,124.40
2023-02-22T19:06:49.926Z,113.90
2023-02-22T19:09:17.757Z,106.50
2023-02-22T19:11:46.850Z,115.30
2023-02-22T19:14:16.859Z,144.70
2023-02-22T19:16:46.491Z,121.80
2023-02-22T19:19:15.116Z,136.30
2023-02-22T19:21:45.106Z,126.10
2023-02-22T19:24:13.407Z,140.20
2023-02-22T19:26:50.606Z,133.40
2023-02-22T19:29:22.270Z,141.40
2023-02-22T19:31:53.895Z,115.00
2023-02-22T19:34:24.418Z,120.50
2023-02-22T19:36:55.971Z,115.60
2023-02-22T19:39:53.408Z,100.90
2023-02-22T19:42:21.376Z,74.20
2023-02-22T19:44:53.907Z,68.80
2023-02-22T19:47:22.642Z,76.70
2023-02-22T19:49:50.797Z,88.30
2023-02-22T19:52:18.933Z,103.30
2023-02-22T19:54:46.929Z,80.20
2023-02-22T19:57:14.985Z,72.80
2023-02-22T19:59:42.973Z,112.60
2023-02-22T20:02:11.995Z,124.10
2023-02-22T20:04:41.942Z,118.20
2023-02-22T20:07:12.863Z,147.20
2023-02-22T20:09:40.948Z,145.10
2023-02-22T20:12:09.867Z,147.90
2023-02-22T20:14:38.778Z,152.90
2023-02-22T20:17:07.908Z,140.90
2023-02-22T20:19:37.752Z,133.10
2023-02-22T20:22:08.895Z,114.00
2023-02-22T20:24:36.915Z,161.50
2023-02-22T20:27:04.797Z,228.00
2023-02-22T20:29:41.460Z,310.30
2023-02-22T20:32:15.334Z,356.70
2023-02-22T20:34:47.592Z,299.80
2023-02-22T20:37:15.949Z,305.50
2023-02-22T20:39:44.539Z,286.20
2023-02-22T20:42:12.414Z,287.90
2023-02-22T20:44:40.384Z,249.90
2023-02-22T20:47:08.669Z,194.40
2023-02-22T20:49:37.000Z,160.10
2023-02-22T20:52:05.051Z,144.40
2023-02-22T20:54:34.517Z,146.50
2023-02-22T20:57:02.585Z,133.00
2023-02-22T20:59:30.688Z,101.50
2023-02-22T21:01:58.527Z,96.40
2023-02-22T21:04:29.333Z,102.80
2023-02-22T21:06:57.253Z,98.00
2023-02-22T21:09:25.234Z,85.60
2023-02-22T21:11:53.203Z,89.40
2023-02-22T21:14:21.102Z,81.60
2023-02-22T21:16:53.279Z,71.20
2023-02-22T21:19:27.045Z,71.50
2023-02-22T21:21:57.991Z,69.30
2023-02-22T21:26:59.166Z,65.40
2023-02-22T21:32:00.065Z,59.70
2023-02-22T21:34:28.267Z,61.90
2023-02-22T21:36:56.879Z,61.80
2023-02-22T21:39:28.602Z,63.90
2023-02-22T21:42:00.809Z,61.00
2023-02-22T21:44:30.055Z,62.60
2023-02-22T21:46:58.101Z,69.40
2023-02-22T21:49:26.343Z,71.00
2023-02-22T21:51:54.719Z,64.20
2023-02-22T21:54:23.250Z,66.10
2023-02-22T21:56:51.462Z,67.50
2023-02-22T21:59:22.576Z,68.00
2023-02-22T22:01:56.075Z,61.70
2023-02-22T22:04:30.720Z,60.60
2023-02-22T22:07:01.743Z,52.70
2023-02-22T22:12:05.272Z,46.60
2023-02-22T22:14:34.820Z,49.40
2023-02-22T22:17:05.740Z,50.80
2023-02-22T22:22:08.019Z,50.80
2023-02-22T22:24:36.511Z,49.70
2023-02-22T22:27:06.505Z,49.10
2023-02-22T22:29:34.675Z,51.10
2023-02-22T22:32:03.561Z,61.40
2023-02-22T22:34:34.499Z,60.70
2023-02-22T22:37:03.095Z,57.20
2023-02-22T22:39:31.482Z,61.20
2023-02-22T22:41:59.382Z,57.50
2023-02-22T22:44:32.679Z,56.70
2023-02-22T22:47:01.394Z,59.10
2023-02-22T22:49:31.517Z,55.30
2023-02-22T22:51:59.807Z,70.90
2023-02-22T22:54:28.893Z,67.40
2023-02-22T22:56:56.836Z,65.80
2023-02-22T22:59:24.953Z,58.80
2023-02-22T23:01:56.670Z,69.80
2023-02-22T23:04:25.622Z,76.60
2023-02-22T23:06:54.666Z,90.30
2023-02-22T23:09:22.471Z,90.40
2023-02-22T23:11:53.709Z,109.90
2023-02-22T23:14:31.253Z,126.00
2023-02-22T23:17:03.835Z,124.40
2023-02-22T23:19:33.967Z,112.00
2023-02-22T23:22:05.453Z,88.40
2023-02-22T23:24:36.313Z,67.00
2023-02-22T23:27:10.808Z,57.60
2023-02-22T23:29:41.125Z,47.30
2023-02-22T23:32:09.446Z,54.70
2023-02-22T23:34:41.582Z,51.30
2023-02-22T23:37:10.858Z,51.80
2023-02-22T23:39:39.113Z,49.30
2023-02-22T23:42:10.539Z,66.70
2023-02-22T23:44:40.234Z,47.30
2023-02-22T23:47:09.624Z,50.60
2023-02-22T23:49:38.986Z,50.80
2023-02-22T23:52:08.801Z,55.00
2023-02-22T23:54:43.875Z,52.50
2023-02-22T23:57:12.072Z,43.80
2023-02-22T23:59:40.588Z,50.40
